Rechercher aéroport 
image banner adimage banner adimage banner ad
image banner ad

2CA5 - Platform Emmy

Situé à Huntington Beach, United States

ICAO - 2CA5, IATA -

Données fournies par Airmate  

Information générale

Coordonnées: N33°39'44" W118°2'40"
Élévation : 87 feet MSL.
Variation magnétique : 14° East
Voir autres Aéroports à California

Données opérationnelles

Special qualification required
Heure actuelle UTC:
Heure actuelle locale:
Météo à : KSLI - Los Alamitos Aaf ( 14 km )
METAR: KSLI 210058Z 20007KT 10SM CLR 23/17 A2988 RMK AO2A SLP121 T02320172
TAF: TAF KSLI 202101Z 2021/2203 VRB06KT 9999 SKC QNH2986INS TX27/2023Z TN17/2114Z
Voir NOTAMs / SUP AIP / TFR affectant cet aéroport [VIEW]
Fréquences de communication: [VIEW]

Pistes:

Coordonnées de l'aéroport

Adresse: Huntington Beach United States

Vue satellite de 2CA5